Time;durP1;ratioP1;P1;durP2;ratioP2;P2;SDS_P1;SDS_P2;PMS_P1;PMS_P2;Temp;Humidity;BMP_temperature;BMP_pressure;BME280_temperature;BME280_humidity;BME280_pressure;Samples;Min_cycle;Max_cycle;Signal;HPM_P1;HPM_P2
2024/04/12 00:01:51;;;;;;;16.70;13.30;;;;;;;14.06;100.00;102445.50;5097967;27;20025;-88
2024/04/12 00:04:20;;;;;;;21.88;13.57;;;;;;;14.03;100.00;102443.72;5057264;27;20017;-88
2024/04/12 00:06:53;;;;;;;19.38;14.35;;;;;;;14.03;100.00;102440.22;5066801;27;20010;-88
2024/04/12 00:09:21;;;;;;;19.65;13.57;;;;;;;14.01;100.00;102447.22;5127367;27;20021;-86
2024/04/12 00:11:54;;;;;;;23.80;13.43;;;;;;;13.99;100.00;102446.34;5094556;28;20039;-88
2024/04/12 00:14:21;;;;;;;23.33;13.70;;;;;;;14.01;100.00;102445.47;5095108;27;20031;-87
2024/04/12 00:16:52;;;;;;;16.88;13.10;;;;;;;14.01;100.00;102437.56;5093044;27;20270;-87
2024/04/12 00:19:23;;;;;;;19.60;12.90;;;;;;;14.02;100.00;102441.09;5090879;27;20081;-86
2024/04/12 00:21:56;;;;;;;19.98;12.75;;;;;;;14.02;100.00;102435.81;5061170;27;20153;-85
2024/04/12 00:24:24;;;;;;;19.08;12.77;;;;;;;14.01;100.00;102437.56;5114825;27;20005;-85
2024/04/12 00:26:53;;;;;;;18.48;12.88;;;;;;;13.99;100.00;102436.69;5124303;27;20016;-88
2024/04/12 00:29:25;;;;;;;18.73;13.48;;;;;;;13.95;100.00;102429.66;5100397;27;20010;-89
2024/04/12 00:32:13;;;;;;;20.30;13.88;;;;;;;13.95;100.00;102427.03;5089684;27;20030;-86
2024/04/12 00:34:47;;;;;;;16.90;12.77;;;;;;;13.97;100.00;102433.16;5112541;27;20013;-86
2024/04/12 00:37:20;;;;;;;18.08;13.02;;;;;;;13.97;100.00;102427.88;5098258;27;20073;-87
2024/04/12 00:39:48;;;;;;;18.30;12.68;;;;;;;13.98;100.00;102429.66;5067423;27;20012;-88
2024/04/12 00:42:25;;;;;;;19.88;14.02;;;;;;;13.97;100.00;102434.91;5095685;27;20025;-87
2024/04/12 00:44:54;;;;;;;19.35;12.10;;;;;;;13.97;100.00;102425.25;5115198;27;20066;-86
2024/04/12 00:47:23;;;;;;;20.38;13.60;;;;;;;13.98;100.00;102424.38;5089257;27;20063;-87
2024/04/12 00:49:49;;;;;;;17.23;11.88;;;;;;;14.00;100.00;102433.19;5111803;27;20028;-86
2024/04/12 00:52:33;;;;;;;17.35;12.15;;;;;;;14.01;100.00;102432.28;5099563;27;20056;-88
2024/04/12 00:55:06;;;;;;;19.13;12.23;;;;;;;14.02;100.00;102422.66;5090190;27;20017;-84
2024/04/12 00:57:38;;;;;;;23.50;12.48;;;;;;;14.02;100.00;102426.16;5110996;27;20009;-87
2024/04/12 01:00:13;;;;;;;18.35;11.80;;;;;;;14.03;100.00;102421.78;5068869;27;20033;-87
2024/04/12 01:02:43;;;;;;;21.65;12.80;;;;;;;14.01;100.00;102419.13;5118639;27;20022;-87
2024/04/12 01:05:13;;;;;;;21.63;12.25;;;;;;;14.02;100.00;102412.13;5075082;27;20020;-86
2024/04/12 01:07:48;;;;;;;22.25;13.75;;;;;;;14.03;100.00;102420.03;5095648;27;20020;-87
2024/04/12 01:10:21;;;;;;;15.57;11.50;;;;;;;14.02;100.00;102410.38;5081407;27;20033;-86
2024/04/12 01:12:54;;;;;;;24.47;11.33;;;;;;;14.07;100.00;102408.63;5093759;27;20013;-87
2024/04/12 01:15:25;;;;;;;18.27;11.93;;;;;;;14.04;100.00;102402.47;5132297;27;20024;-87
2024/04/12 01:17:56;;;;;;;18.02;13.38;;;;;;;14.06;100.00;102400.72;5073935;28;20020;-87
2024/04/12 01:20:22;;;;;;;19.63;13.05;;;;;;;14.04;100.00;102389.28;5119119;27;20022;-86
2024/04/12 01:22:57;;;;;;;19.80;12.52;;;;;;;14.06;100.00;102392.84;5101331;27;20517;-87
2024/04/12 01:25:28;;;;;;;26.35;13.45;;;;;;;14.04;100.00;102387.56;5095151;27;20094;-86
2024/04/12 01:27:57;;;;;;;17.27;12.48;;;;;;;14.04;100.00;102386.66;5099803;27;20017;-87
2024/04/12 01:30:24;;;;;;;24.23;14.00;;;;;;;14.04;100.00;102384.03;5071526;27;20546;-88
2024/04/12 01:32:52;;;;;;;17.70;12.27;;;;;;;14.03;100.00;102388.44;5096848;27;20026;-87
2024/04/12 01:35:21;;;;;;;17.90;12.20;;;;;;;14.07;100.00;102386.69;5097307;27;20017;-87
2024/04/12 01:37:51;;;;;;;15.52;12.13;;;;;;;14.06;100.00;102393.69;5093326;28;20071;-86
2024/04/12 01:40:18;;;;;;;17.52;12.13;;;;;;;14.03;100.00;102383.16;5122016;27;20028;-87
2024/04/12 01:42:48;;;;;;;16.25;12.18;;;;;;;14.04;100.00;102384.94;5098169;28;20028;-87
2024/04/12 01:45:14;;;;;;;17.27;12.45;;;;;;;14.01;100.00;102386.66;5096826;27;20006;-86
2024/04/12 01:47:48;;;;;;;21.65;12.90;;;;;;;13.99;100.00;102396.31;5130165;27;20010;-87
2024/04/12 01:50:21;;;;;;;17.38;11.50;;;;;;;14.00;100.00;102393.69;5104785;27;20009;-87
2024/04/12 01:52:54;;;;;;;22.08;12.05;;;;;;;14.00;100.00;102396.31;5120401;27;20907;-85
2024/04/12 01:55:22;;;;;;;22.27;13.00;;;;;;;14.01;100.00;102398.06;5095263;27;20026;-88
2024/04/12 01:57:55;;;;;;;16.25;11.85;;;;;;;14.00;100.00;102393.69;5132537;27;20029;-88
2024/04/12 02:00:23;;;;;;;;;;;;;;;14.01;100.00;102403.31;5126990;27;20093;-85
2024/04/12 02:02:55;;;;;;;18.38;12.27;;;;;;;13.97;100.00;102391.03;5121597;27;19986;-86
2024/04/12 02:05:29;;;;;;;16.10;11.10;;;;;;;13.98;100.00;102391.94;5099580;27;20006;-86
2024/04/12 02:07:59;;;;;;;15.90;11.80;;;;;;;13.96;100.00;102393.66;5130178;27;20005;-87
2024/04/12 02:10:26;;;;;;;20.52;13.10;;;;;;;13.95;100.00;102392.78;5104238;27;20033;-87
2024/04/12 02:12:55;;;;;;;18.40;12.57;;;;;;;13.96;100.00;102385.75;5123709;27;20013;-87
2024/04/12 02:15:25;;;;;;;18.15;12.88;;;;;;;13.97;100.00;102390.16;5089215;27;20383;-87
2024/04/12 02:17:57;;;;;;;18.42;13.32;;;;;;;13.92;100.00;102390.13;5098668;27;20411;-86
2024/04/12 02:20:33;;;;;;;17.02;12.00;;;;;;;13.95;100.00;102390.16;5120817;27;20013;-87
2024/04/12 02:23:04;;;;;;;21.08;13.15;;;;;;;13.95;100.00;102391.88;5087508;28;20060;-88
2024/04/12 02:25:35;;;;;;;21.45;12.20;;;;;;;13.96;100.00;102388.41;5097446;27;20001;-87
2024/04/12 02:28:07;;;;;;;16.13;11.63;;;;;;;13.97;100.00;102391.03;5121896;27;20031;-86
2024/04/12 02:30:41;;;;;;;18.40;13.18;;;;;;;13.99;100.00;102384.03;5072436;27;20009;-87
2024/04/12 02:33:21;;;;;;;20.58;12.35;;;;;;;14.01;100.00;102389.28;5096578;27;20006;-88
2024/04/12 02:36:11;;;;;;;17.75;11.63;;;;;;;14.03;100.00;102382.28;5100261;27;20009;-87
2024/04/12 02:38:50;;;;;;;18.60;12.02;;;;;;;14.03;100.00;102371.75;5105074;27;20013;-87
2024/04/12 02:41:17;;;;;;;16.63;12.95;;;;;;;14.04;100.00;102370.88;5119542;27;20061;-85
2024/04/12 02:43:52;;;;;;;20.92;12.68;;;;;;;14.04;100.00;102366.50;5101963;27;20064;-89
2024/04/12 02:46:19;;;;;;;14.95;11.57;;;;;;;14.02;100.00;102359.47;5091177;27;20016;-86
2024/04/12 02:48:47;;;;;;;15.63;11.30;;;;;;;14.01;100.00;102358.56;5096619;27;20033;-86
2024/04/12 02:51:14;;;;;;;18.67;12.38;;;;;;;13.99;100.00;102354.19;5121988;27;20675;-87
2024/04/12 02:53:43;;;;;;;13.07;9.63;;;;;;;14.00;100.00;102356.84;5126339;27;20019;-85
2024/04/12 02:56:14;;;;;;;13.73;10.48;;;;;;;14.03;100.00;102358.59;5103069;27;20005;-86
2024/04/12 02:58:52;;;;;;;15.55;9.60;;;;;;;14.03;100.00;102362.09;5124961;27;20073;-87
2024/04/12 03:01:23;;;;;;;17.73;10.82;;;;;;;14.01;100.00;102355.06;5082645;27;20005;-87
2024/04/12 03:03:55;;;;;;;15.98;11.13;;;;;;;13.99;100.00;102357.69;5076536;27;20066;-87
2024/04/12 03:06:23;;;;;;;15.43;11.00;;;;;;;13.96;100.00;102348.91;5096036;27;20010;-87
2024/04/12 03:08:54;;;;;;;10.43;8.95;;;;;;;13.97;100.00;102356.81;5128151;27;20063;-86
2024/04/12 03:11:22;;;;;;;17.50;11.23;;;;;;;13.98;100.00;102349.81;5125893;27;20008;-87
2024/04/12 03:13:58;;;;;;;16.83;11.98;;;;;;;13.95;100.00;102353.31;5095187;27;20018;-88
2024/04/12 03:16:25;;;;;;;21.17;10.82;;;;;;;13.97;100.00;102346.28;5064681;27;20010;-86
2024/04/12 03:18:54;;;;;;;16.83;11.00;;;;;;;13.96;100.00;102335.72;5091796;27;20007;-86
2024/04/12 03:21:26;;;;;;;18.85;11.50;;;;;;;13.96;100.00;102338.38;5127322;27;20014;-86
2024/04/12 03:23:57;;;;;;;15.73;11.13;;;;;;;13.94;100.00;102342.78;5095137;27;20010;-88
2024/04/12 03:26:24;;;;;;;16.85;11.02;;;;;;;13.95;100.00;102341.88;5078013;27;20090;-85
2024/04/12 03:29:03;;;;;;;17.08;10.77;;;;;;;13.96;100.00;102341.00;5071180;27;20016;-86
2024/04/12 03:31:31;;;;;;;15.00;10.13;;;;;;;13.96;100.00;102335.72;5134144;27;20134;-86
2024/04/12 03:34:06;;;;;;;14.40;11.23;;;;;;;13.97;100.00;102334.88;5097782;27;20009;-87
2024/04/12 03:39:34;;;;;;;13.85;9.95;;;;;;;13.94;100.00;102316.44;5109313;27;20128;-86
2024/04/12 03:42:04;;;;;;;15.98;11.50;;;;;;;13.97;100.00;102321.72;5070282;27;20005;-86
2024/04/12 03:44:38;;;;;;;14.85;11.55;;;;;;;13.95;100.00;102323.44;5090178;27;20020;-85
2024/04/12 03:47:07;;;;;;;15.45;11.98;;;;;;;13.93;100.00;102326.06;5089378;27;20016;-85
2024/04/12 03:49:40;;;;;;;15.38;11.07;;;;;;;13.92;100.00;102332.19;5090893;27;20013;-87
2024/04/12 03:52:12;;;;;;;15.45;11.13;;;;;;;13.93;100.00;102320.81;5091276;27;20017;-87
2024/04/12 03:54:42;;;;;;;17.35;10.63;;;;;;;13.93;100.00;102325.19;5113114;27;20024;-86
2024/04/12 03:57:09;;;;;;;15.57;11.88;;;;;;;13.92;100.00;102323.44;5091463;27;20010;-84
2024/04/12 03:59:42;;;;;;;17.30;11.35;;;;;;;13.93;100.00;102322.56;5059913;27;20028;-84
2024/04/12 04:02:13;;;;;;;15.35;10.23;;;;;;;13.94;100.00;102319.94;5060625;27;20025;-84
2024/04/12 04:04:47;;;;;;;14.70;10.32;;;;;;;13.94;100.00;102319.06;5089593;27;20022;-86
2024/04/12 04:07:15;;;;;;;15.95;10.68;;;;;;;13.97;100.00;102322.56;5087777;27;20006;-86
2024/04/12 04:09:46;;;;;;;15.85;10.45;;;;;;;13.93;100.00;102327.84;5110887;27;20332;-85
2024/04/12 04:12:14;;;;;;;14.65;10.82;;;;;;;13.92;100.00;102320.81;5059649;27;20010;-86
2024/04/12 04:14:47;;;;;;;15.45;10.38;;;;;;;13.93;100.00;102317.31;5056937;28;20021;-85
2024/04/12 04:17:15;;;;;;;17.10;11.77;;;;;;;13.94;100.00;102314.69;5078986;28;20022;-85
2024/04/12 04:19:45;;;;;;;14.85;10.25;;;;;;;13.97;100.00;102313.81;5079130;28;20107;-85
2024/04/12 04:22:21;;;;;;;16.80;10.80;;;;;;;13.95;100.00;102311.19;5049332;28;20095;-86
2024/04/12 04:24:54;;;;;;;17.60;10.50;;;;;;;13.98;100.00;102307.69;5076967;28;20011;-87
2024/04/12 04:27:21;;;;;;;17.27;11.20;;;;;;;13.94;100.00;102305.91;5056975;28;20010;-86
2024/04/12 04:29:55;;;;;;;17.40;10.30;;;;;;;13.94;100.00;102319.94;5054852;28;20026;-86
2024/04/12 04:32:21;;;;;;;19.15;11.25;;;;;;;13.95;100.00;102321.72;5065619;28;20046;-86
2024/04/12 04:34:54;;;;;;;16.90;11.98;;;;;;;13.94;100.00;102321.72;5088214;28;20359;-86
2024/04/12 04:37:26;;;;;;;19.90;12.38;;;;;;;13.95;100.00;102324.34;5057509;28;20538;-86
2024/04/12 04:40:02;;;;;;;18.20;11.17;;;;;;;13.96;100.00;102330.47;5048652;28;20008;-84
2024/04/12 04:42:28;;;;;;;16.48;12.02;;;;;;;13.95;100.00;102332.22;5080376;28;20010;-87
2024/04/12 04:44:57;;;;;;;16.15;11.55;;;;;;;13.92;100.00;102331.34;5084832;28;20018;-85
2024/04/12 04:47:23;;;;;;;20.40;13.20;;;;;;;13.93;100.00;102326.06;5058709;28;20026;-85
2024/04/12 04:49:52;;;;;;;17.98;11.75;;;;;;;13.94;100.00;102324.34;5053193;28;20010;-85
2024/04/12 04:52:18;;;;;;;21.45;12.40;;;;;;;13.96;100.00;102323.47;5063625;28;20099;-86
2024/04/12 04:54:46;;;;;;;16.50;11.40;;;;;;;13.94;100.00;102327.84;5061421;28;20018;-88
2024/04/12 04:57:12;;;;;;;16.20;11.00;;;;;;;13.94;100.00;102338.38;5035894;28;20475;-85
2024/04/12 04:59:44;;;;;;;23.05;12.55;;;;;;;13.94;100.00;102343.63;5054440;28;20019;-85
2024/04/12 05:02:11;;;;;;;22.23;12.52;;;;;;;13.94;100.00;102341.00;5068970;28;20026;-85
2024/04/12 05:04:39;;;;;;;16.50;10.75;;;;;;;13.94;100.00;102341.00;5070580;28;20018;-85
2024/04/12 05:07:07;;;;;;;17.55;11.35;;;;;;;13.98;100.00;102349.81;5062128;28;20015;-86
2024/04/12 05:09:35;;;;;;;22.83;12.38;;;;;;;13.97;100.00;102337.50;5067239;28;20014;-84
2024/04/12 05:12:03;;;;;;;21.98;13.93;;;;;;;13.99;100.00;102341.03;5085079;28;20011;-84
2024/04/12 05:14:54;;;;;;;18.33;12.75;;;;;;;14.01;100.00;102344.53;5127008;27;21611;-84
2024/04/12 05:17:21;;;;;;;21.42;13.35;;;;;;;14.03;100.00;102348.06;5113487;27;20006;-84
2024/04/12 05:19:50;;;;;;;23.65;13.65;;;;;;;14.04;100.00;102345.44;5125418;27;20028;-84
2024/04/12 05:22:19;;;;;;;17.50;13.18;;;;;;;14.02;100.00;102341.91;5093293;27;20085;-84
2024/04/12 05:24:53;;;;;;;21.20;13.13;;;;;;;14.03;100.00;102346.31;5124142;27;20005;-84
2024/04/12 05:27:19;;;;;;;22.10;14.35;;;;;;;14.05;100.00;102346.31;5065465;27;20002;-85
2024/04/12 05:29:50;;;;;;;20.27;13.95;;;;;;;14.05;100.00;102339.28;5089977;28;20006;-84
2024/04/12 05:32:20;;;;;;;18.58;14.38;;;;;;;14.07;100.00;102336.66;5093446;27;20024;-83
2024/04/12 05:34:48;;;;;;;24.52;14.80;;;;;;;14.03;100.00;102335.75;5101744;28;20029;-83
2024/04/12 05:37:15;;;;;;;20.73;14.90;;;;;;;14.11;100.00;102330.53;5079783;27;20549;-84
2024/04/12 05:39:43;;;;;;;20.05;14.02;;;;;;;14.12;100.00;102329.66;5120399;27;20025;-84
2024/04/12 05:42:11;;;;;;;20.90;14.98;;;;;;;14.16;100.00;102322.66;5089385;28;20600;-86
2024/04/12 05:44:43;;;;;;;22.73;14.70;;;;;;;14.11;100.00;102327.91;5103774;27;20009;-85
2024/04/12 05:47:09;;;;;;;28.35;17.10;;;;;;;14.15;100.00;102327.03;5116746;27;20020;-84
2024/04/12 05:49:40;;;;;;;19.95;14.02;;;;;;;14.15;100.00;102327.03;5118084;27;20041;-84
2024/04/12 05:52:06;;;;;;;21.25;15.82;;;;;;;14.19;100.00;102322.66;5056349;27;20005;-84
2024/04/12 05:54:39;;;;;;;25.92;15.68;;;;;;;14.21;100.00;102324.41;5080342;27;20009;-84
2024/04/12 05:57:10;;;;;;;22.63;15.45;;;;;;;14.19;100.00;102318.25;5067731;28;20009;-85
2024/04/12 05:59:42;;;;;;;21.70;14.27;;;;;;;14.22;100.00;102320.00;5088671;28;20346;-84
2024/04/12 06:02:18;;;;;;;21.33;16.02;;;;;;;14.31;100.00;102308.63;5070814;27;20006;-90
2024/04/12 06:04:51;;;;;;;21.70;14.40;;;;;;;14.36;100.00;102294.56;5075776;28;20021;-89
2024/04/12 06:07:18;;;;;;;20.92;14.88;;;;;;;14.41;100.00;102299.88;5112317;27;20010;-90
2024/04/12 06:09:58;;;;;;;22.20;15.23;;;;;;;14.45;100.00;102292.84;5108130;28;20041;-89
2024/04/12 06:12:24;;;;;;;20.52;14.23;;;;;;;14.50;100.00;102293.75;5122565;27;20005;-88
2024/04/12 06:15:05;;;;;;;19.67;13.68;;;;;;;14.50;100.00;102284.06;5098003;28;20614;-90
2024/04/12 06:17:40;;;;;;;15.77;11.75;;;;;;;14.64;100.00;102276.22;5044773;28;20011;-90
2024/04/12 06:20:32;;;;;;;19.05;12.25;;;;;;;14.69;100.00;102274.47;5053758;28;20006;-89
2024/04/12 06:23:19;;;;;;;16.52;11.57;;;;;;;14.83;100.00;102277.06;5061920;28;20014;-88
2024/04/12 06:32:01;;;;;;;14.73;9.32;;;;;;;15.18;98.19;102293.75;5141685;27;20013;-88
2024/04/12 06:34:37;;;;;;;12.85;8.13;;;;;;;15.18;97.50;102284.06;5101954;27;20024;-87
2024/04/12 06:37:10;;;;;;;11.60;8.10;;;;;;;15.25;97.64;102284.03;5151823;27;20105;-89
2024/04/12 06:39:43;;;;;;;11.40;7.85;;;;;;;15.32;96.32;102278.75;5070587;27;20087;-86
2024/04/12 06:45:13;;;;;;;9.00;6.70;;;;;;;15.57;94.53;102281.31;5118925;27;20149;-85
2024/04/12 06:47:48;;;;;;;9.35;6.90;;;;;;;15.98;91.69;102271.47;5100239;27;20013;-86
2024/04/12 06:50:19;;;;;;;12.52;7.00;;;;;;;18.34;77.34;102269.06;5094930;27;20011;-83
2024/04/12 06:52:50;;;;;;;8.80;6.03;;;;;;;17.89;78.85;102281.19;5101046;27;20009;-86
2024/04/12 06:55:30;;;;;;;7.93;4.95;;;;;;;20.58;65.89;102271.66;5083679;27;20012;-85
2024/04/12 06:57:58;;;;;;;7.65;5.20;;;;;;;18.97;71.86;102284.84;5119865;27;20005;-85
2024/04/12 07:00:40;;;;;;;8.23;5.68;;;;;;;17.50;77.30;102271.94;5132739;27;20106;-86
2024/04/12 07:03:08;;;;;;;7.85;5.45;;;;;;;16.66;82.96;102277.16;5099985;28;20013;-85
2024/04/12 07:05:39;;;;;;;7.13;4.70;;;;;;;16.35;84.61;102281.81;5104271;27;20982;-86
2024/04/12 07:08:10;;;;;;;6.82;5.20;;;;;;;16.45;85.35;102288.81;5099186;27;20010;-86
2024/04/12 07:10:39;;;;;;;9.63;4.63;;;;;;;16.29;86.27;102287.16;5055690;27;20292;-86
2024/04/12 07:13:15;;;;;;;7.10;4.35;;;;;;;16.47;85.30;102283.50;5076406;28;20006;-84
2024/04/12 07:15:48;;;;;;;4.78;4.07;;;;;;;16.79;83.08;102275.31;5080900;28;20014;-85
2024/04/12 07:18:26;;;;;;;7.03;4.30;;;;;;;16.54;83.71;102272.88;5104961;28;20090;-84
2024/04/12 07:21:14;;;;;;;6.22;3.80;;;;;;;16.89;81.76;102275.22;5125404;27;20080;-85
2024/04/12 07:23:55;;;;;;;4.28;3.25;;;;;;;16.46;82.60;102274.66;5107780;27;20005;-87
2024/04/12 07:26:24;;;;;;;8.95;3.78;;;;;;;16.36;83.20;102267.69;5116963;27;20022;-86
2024/04/12 07:29:01;;;;;;;7.30;3.58;;;;;;;16.27;83.46;102267.75;5100366;27;20021;-85
2024/04/12 07:31:36;;;;;;;4.35;3.35;;;;;;;16.23;84.00;102282.78;5125653;27;20010;-85
2024/04/12 07:34:06;;;;;;;5.10;3.38;;;;;;;16.31;83.51;102288.00;5128817;27;20009;-85
2024/04/12 07:36:32;;;;;;;3.80;3.15;;;;;;;16.00;84.19;102285.56;5095435;27;20021;-86
2024/04/12 07:39:15;;;;;;;3.53;3.20;;;;;;;15.74;85.73;102297.09;5100844;27;20010;-84
2024/04/12 07:41:47;;;;;;;5.60;3.08;;;;;;;15.66;85.58;102301.53;5075748;28;20005;-86
2024/04/12 07:44:18;;;;;;;;;;;;;;;15.90;84.96;102295.28;5101658;27;20021;-85
2024/04/12 07:46:49;;;;;;;3.90;2.40;;;;;;;16.12;83.77;102290.75;5102165;28;19988;-84
2024/04/12 07:49:24;;;;;;;5.00;3.15;;;;;;;16.08;83.36;102291.66;5085680;27;20355;-85
2024/04/12 07:51:50;;;;;;;4.80;2.85;;;;;;;15.90;84.69;102294.41;5070455;28;20009;-87
2024/04/12 07:54:20;;;;;;;3.90;2.72;;;;;;;15.99;84.32;102303.16;5102116;27;20033;-86
2024/04/12 07:57:07;;;;;;;2.80;2.60;;;;;;;15.85;84.37;102295.31;5124604;27;20009;-84
2024/04/12 07:59:38;;;;;;;2.75;2.50;;;;;;;15.95;84.52;102282.94;5099693;27;20301;-85
2024/04/12 08:02:07;;;;;;;4.93;2.88;;;;;;;16.03;84.69;102282.88;5084175;27;20020;-86
2024/04/12 08:04:45;;;;;;;2.47;2.28;;;;;;;16.22;83.15;102286.31;5096434;27;20014;-85
2024/04/12 08:07:13;;;;;;;4.72;2.90;;;;;;;16.10;83.76;102289.91;5092329;28;20028;-85
2024/04/12 08:09:44;;;;;;;2.78;2.05;;;;;;;16.01;83.93;102282.91;5099829;27;20775;-86
2024/04/12 08:12:23;;;;;;;3.75;3.00;;;;;;;16.07;83.88;102283.75;5124416;27;20092;-85
2024/04/12 08:15:06;;;;;;;2.70;2.10;;;;;;;16.03;83.58;102296.09;5101497;27;20017;-86
2024/04/12 08:28:22;;;;;;;2.78;2.60;;;;;;;16.37;82.50;102295.88;1617263;20;110313456;-84
2024/04/12 08:30:51;;;;;;;4.55;2.80;;;;;;;16.25;82.23;102303.91;6642950;21;20000;-83
2024/04/12 08:33:24;;;;;;;3.50;3.20;;;;;;;16.31;82.49;102303.84;6598801;21;19996;-84
2024/04/12 08:35:55;;;;;;;3.40;3.10;;;;;;;16.53;81.95;102301.94;6551807;21;20010;-86
2024/04/12 08:38:27;;;;;;;5.75;3.60;;;;;;;16.26;82.02;102295.97;6642268;21;20000;-84
2024/04/12 08:41:31;;;;;;;10.57;6.50;;;;;;;16.58;81.35;102304.56;6613046;21;20031;-86
2024/04/12 08:44:09;;;;;;;10.93;6.05;;;;;;;17.18;80.18;102304.03;6634254;21;20050;-81
2024/04/12 08:46:57;;;;;;;;;;;;;;;;;;;;;
2024/04/12 08:50:13;;;;;;;9.75;4.60;;;;;;;17.64;76.15;102298.25;6664561;21;19991;-85
2024/04/12 08:55:55;;;;;;;9.18;6.45;;;;;;;17.69;74.21;102306.13;6544822;21;20440;-87
2024/04/12 08:58:23;;;;;;;10.00;4.18;;;;;;;17.25;75.03;102302.22;6545177;21;20012;-84
2024/04/12 09:00:56;;;;;;;7.40;5.55;;;;;;;17.05;76.51;102295.34;6495019;22;20008;-87
2024/04/12 09:03:25;;;;;;;7.28;4.78;;;;;;;17.01;77.03;102298.91;6503855;22;20005;-86
2024/04/12 09:05:56;;;;;;;4.97;4.57;;;;;;;17.36;74.69;102289.75;6501876;22;20314;-86
2024/04/12 09:08:28;;;;;;;7.63;4.85;;;;;;;17.67;73.75;102289.41;6548194;21;20011;-86
2024/04/12 09:11:05;;;;;;;8.80;5.88;;;;;;;17.77;73.18;102283.09;6506404;22;20009;-84
2024/04/12 09:13:36;;;;;;;6.90;4.95;;;;;;;17.82;72.98;102285.66;6547229;22;20012;-87
2024/04/12 09:16:07;;;;;;;7.40;4.95;;;;;;;17.66;73.58;102267.34;6548636;22;19997;-84
2024/04/12 09:18:44;;;;;;;5.50;5.00;;;;;;;17.82;72.99;102268.00;6547027;21;20001;-84
2024/04/12 09:21:24;;;;;;;5.10;4.57;;;;;;;18.05;72.20;102263.31;6507131;22;20029;-84
2024/04/12 09:23:50;;;;;;;6.75;5.22;;;;;;;18.23;71.50;102260.38;6505497;22;20015;-86
2024/04/12 09:26:40;;;;;;;5.00;4.50;;;;;;;18.22;71.57;102277.19;6502999;22;20001;-86
2024/04/12 09:29:16;;;;;;;8.60;6.13;;;;;;;18.78;68.91;102268.34;6504789;22;19997;-85
2024/04/12 09:34:35;;;;;;;5.43;4.18;;;;;;;19.06;67.81;102273.16;6542964;21;20025;-87
2024/04/12 09:37:28;;;;;;;5.70;4.50;;;;;;;19.13;67.06;102267.72;6546499;22;20048;-85
2024/04/12 09:45:49;;;;;;;9.38;4.45;;;;;;;18.35;69.88;102262.88;6510813;22;20013;-86
2024/04/12 10:39:18;;;;;;;4.13;3.55;;;;;;;17.75;77.55;102263.69;6532566;22;20075;-84
2024/04/12 10:41:48;;;;;;;4.28;3.70;;;;;;;17.77;77.59;102261.00;6494443;22;20015;-85
2024/04/12 10:44:16;;;;;;;4.60;3.85;;;;;;;17.74;78.42;102266.34;6538264;22;20001;-88
2024/04/12 10:46:45;;;;;;;3.78;3.42;;;;;;;17.69;78.38;102272.59;6543747;21;20001;-86
2024/04/12 10:49:14;;;;;;;4.38;3.97;;;;;;;17.37;80.37;102257.09;6541591;22;19993;-85
2024/04/12 10:51:52;;;;;;;5.43;4.40;;;;;;;17.55;80.18;102273.63;6500976;22;20005;-86
2024/04/12 10:54:23;;;;;;;5.65;3.85;;;;;;;17.39;81.46;102263.25;6497172;22;20766;-86
2024/04/12 10:56:53;;;;;;;5.72;3.20;;;;;;;17.39;82.24;102260.63;6501912;22;20009;-87
2024/04/12 10:59:26;;;;;;;14.98;7.10;;;;;;;17.62;81.78;102257.66;6586295;21;19997;-86
2024/04/12 11:02:00;;;;;;;5.18;4.30;;;;;;;17.84;80.89;102250.31;6545241;22;20013;-88
2024/04/12 11:04:34;;;;;;;4.90;3.53;;;;;;;18.02;79.92;102243.91;6504260;22;20017;-85
2024/04/12 11:07:07;;;;;;;5.38;3.83;;;;;;;17.86;80.04;102237.94;6546421;22;19993;-86
2024/04/12 11:09:40;;;;;;;4.72;3.35;;;;;;;17.95;79.31;102230.75;6503999;22;20064;-87
2024/04/12 11:12:16;;;;;;;4.22;3.83;;;;;;;17.98;79.67;102241.34;6545212;22;20012;-87
2024/04/12 11:14:50;;;;;;;5.20;4.38;;;;;;;18.18;78.22;102244.53;6504660;22;20001;-86
2024/04/12 11:31:27;;;;;;;4.80;3.70;;;;;;;17.97;79.16;102221.91;6510137;21;20001;-89
2024/04/12 11:33:57;;;;;;;4.95;3.50;;;;;;;18.12;78.68;102227.84;6546467;22;20033;-86
2024/04/12 11:36:33;;;;;;;5.28;3.15;;;;;;;18.53;77.18;102226.31;6544928;21;19996;-87
2024/04/12 11:39:17;;;;;;;5.00;3.35;;;;;;;18.52;76.64;102225.47;6504034;22;20078;-85
2024/04/12 11:41:47;;;;;;;5.03;2.95;;;;;;;18.33;75.96;102231.97;6548429;21;19997;-87
2024/04/12 11:44:19;;;;;;;3.85;3.08;;;;;;;18.47;75.21;102218.47;6502908;22;20001;-91
2024/04/12 11:46:56;;;;;;;6.60;4.30;;;;;;;18.48;75.28;102222.88;6545622;21;19998;-91
2024/04/12 11:52:15;;;;;;;5.18;3.53;;;;;;;18.09;76.02;102219.97;6579661;21;20011;-88
2024/04/12 11:54:51;;;;;;;4.18;3.70;;;;;;;17.89;76.30;102212.31;6502457;22;20021;-88
2024/04/12 11:57:22;;;;;;;4.50;3.63;;;;;;;17.98;76.67;102218.34;6499198;22;20034;-87
2024/04/12 11:59:54;;;;;;;4.95;4.10;;;;;;;18.28;75.90;102216.13;6539689;22;20025;-86
2024/04/12 12:02:27;;;;;;;4.90;3.77;;;;;;;18.38;75.53;102211.53;6499271;22;19993;-88
2024/04/12 12:04:54;;;;;;;4.78;2.92;;;;;;;18.43;75.32;102203.50;6584574;21;20001;-87
2024/04/12 12:07:26;;;;;;;4.60;3.03;;;;;;;18.35;75.29;102201.00;6546031;21;19985;-86
2024/04/12 12:10:12;;;;;;;4.47;3.80;;;;;;;18.06;76.18;102193.53;6506871;21;19993;-87
2024/04/12 12:15:34;;;;;;;4.07;3.67;;;;;;;18.32;76.17;102201.91;6605596;21;19996;-88
2024/04/12 12:21:05;;;;;;;4.00;3.03;;;;;;;18.49;75.65;102193.66;6592136;21;20081;-89
2024/04/12 12:34:45;;;;;;;4.80;4.35;;;;;;;18.78;74.82;102189.59;6611256;21;20051;-91
2024/04/12 12:37:12;;;;;;;7.75;5.43;;;;;;;18.99;74.12;102183.06;6567439;21;19992;-90
2024/04/12 12:39:41;;;;;;;4.57;3.97;;;;;;;18.94;74.33;102178.75;6548561;21;19993;-90
2024/04/12 12:42:12;;;;;;;6.43;4.50;;;;;;;18.85;74.47;102185.94;6553907;21;20001;-90
2024/04/12 12:44:41;;;;;;;7.30;4.43;;;;;;;18.59;75.53;102185.56;6553708;21;20007;-89
2024/04/12 12:47:31;;;;;;;5.55;5.05;;;;;;;18.60;75.87;102179.34;6555876;21;20205;-90
2024/04/12 12:50:01;;;;;;;5.43;4.22;;;;;;;18.67;75.66;102171.25;6599466;21;20025;-90
2024/04/12 12:52:32;;;;;;;6.60;4.88;;;;;;;18.81;75.29;102164.81;6521441;21;19989;-90
2024/04/12 12:55:14;;;;;;;6.50;4.80;;;;;;;19.06;75.25;102173.22;6562418;21;20000;-90
2024/04/12 12:57:46;;;;;;;9.57;4.80;;;;;;;18.95;74.61;102170.75;6650852;21;20047;-88
2024/04/12 13:00:18;;;;;;;9.05;5.35;;;;;;;18.80;75.08;102166.59;6605640;21;19996;-88
2024/04/12 13:02:52;;;;;;;7.13;4.95;;;;;;;18.66;76.25;102169.50;6519835;21;19998;-88
2024/04/12 13:05:30;;;;;;;5.20;4.78;;;;;;;18.81;75.66;102160.38;6565174;21;20008;-89
2024/04/12 13:07:59;;;;;;;6.07;4.43;;;;;;;18.83;75.69;102152.41;6608578;21;20011;-90
2024/04/12 13:10:27;;;;;;;5.13;4.15;;;;;;;18.76;75.78;102153.41;6547149;21;20028;-84
2024/04/12 13:13:17;;;;;;;7.50;4.45;;;;;;;18.77;75.95;102158.72;6579808;21;20522;-88
2024/04/12 13:15:45;;;;;;;8.20;4.45;;;;;;;18.60;75.97;102151.03;6575912;21;20096;-87
2024/04/12 13:18:15;;;;;;;10.85;4.88;;;;;;;18.64;76.38;102146.56;6576972;21;20078;-83
2024/04/12 13:20:44;;;;;;;4.82;4.15;;;;;;;18.75;75.75;102149.03;6579473;21;20019;-85
2024/04/12 13:23:14;;;;;;;5.75;4.20;;;;;;;18.83;75.85;102147.09;6580397;21;20008;-83
2024/04/12 13:25:42;;;;;;;5.00;3.58;;;;;;;18.96;75.59;102148.63;6586706;21;19995;-84
2024/04/12 13:28:14;;;;;;;7.00;4.45;;;;;;;18.76;76.28;102137.50;6539012;21;20088;-84
2024/04/12 13:30:40;;;;;;;7.25;5.13;;;;;;;18.89;75.43;102138.13;6583849;21;20066;-85
2024/04/12 13:33:09;;;;;;;6.38;5.53;;;;;;;18.94;75.59;102134.53;6586844;21;20010;-84
2024/04/12 13:35:40;;;;;;;5.53;4.38;;;;;;;19.08;75.41;102136.88;6503795;21;20031;-84
2024/04/12 13:38:17;;;;;;;6.07;4.70;;;;;;;19.10;75.41;102131.53;6589864;21;19999;-85